DHL406 EDDP-LOWW
Flight info
| Callsign | DHL406 |
|---|---|
| Flight time | 0h 58m |
| Altitude | 29000 |
| Route | DRN2N DRN Z21 OMELO DCT EVIKU DCT BITSI DCT MIKOV MIKOV8W |
| Aircraft | A333/H-SDE3GHIJ2J3J5M1RVWXY/LB2D1 |
Departure
| Time | 2026-04-25 13:21 |
|---|---|
| Airport | Leipzig/Halle Airport (EDDP) |
Arrival
| Time | 2026-04-25 14:19 |
|---|---|
| Airport | Vienna International Airport (LOWW) |
| Time | Latitude | Longitude | Altitude | Speed | Heading |
|---|---|---|---|---|---|
| 2026-04-25 12:57 | 51.40837 | 12.20554 | 443 ft | 0 kts | 175° |
| 2026-04-25 13:07 | 51.40849 | 12.20552 | 429 ft | 4 kts | 170° |
| 2026-04-25 13:07 | 51.40874 | 12.20541 | 426 ft | 4 kts | 154° |
| 2026-04-25 13:08 | 51.40897 | 12.20519 | 426 ft | 4 kts | 135° |
| 2026-04-25 13:08 | 51.40913 | 12.20485 | 426 ft | 4 kts | 116° |
| 2026-04-25 13:08 | 51.40923 | 12.20445 | 426 ft | 4 kts | 101° |
| 2026-04-25 13:08 | 51.40926 | 12.20403 | 426 ft | 4 kts | 90° |
| 2026-04-25 13:09 | 51.40925 | 12.20360 | 426 ft | 4 kts | 83° |
| 2026-04-25 13:09 | 51.40922 | 12.20321 | 429 ft | 1 kts | 85° |
| 2026-04-25 13:13 | 51.40922 | 12.20338 | 426 ft | 3 kts | 86° |
| 2026-04-25 13:13 | 51.40929 | 12.20392 | 426 ft | 8 kts | 69° |
| 2026-04-25 13:13 | 51.40979 | 12.20483 | 429 ft | 13 kts | 62° |
| 2026-04-25 13:13 | 51.40996 | 12.20633 | 433 ft | 13 kts | 85° |
| 2026-04-25 13:14 | 51.41003 | 12.20767 | 430 ft | 12 kts | 86° |
| 2026-04-25 13:14 | 51.41009 | 12.20899 | 443 ft | 12 kts | 85° |
| 2026-04-25 13:14 | 51.41015 | 12.21033 | 446 ft | 11 kts | 86° |
| 2026-04-25 13:14 | 51.41021 | 12.21147 | 451 ft | 11 kts | 86° |
| 2026-04-25 13:15 | 51.41029 | 12.21332 | 455 ft | 21 kts | 86° |
| 2026-04-25 13:15 | 51.41041 | 12.21580 | 459 ft | 22 kts | 86° |
| 2026-04-25 13:15 | 51.41052 | 12.21816 | 462 ft | 22 kts | 86° |
| 2026-04-25 13:15 | 51.41065 | 12.22068 | 460 ft | 23 kts | 85° |
| 2026-04-25 13:16 | 51.41075 | 12.22326 | 459 ft | 24 kts | 86° |
| 2026-04-25 13:16 | 51.41088 | 12.22590 | 461 ft | 23 kts | 85° |
| 2026-04-25 13:16 | 51.41100 | 12.22840 | 465 ft | 22 kts | 84° |
| 2026-04-25 13:16 | 51.41111 | 12.23078 | 470 ft | 22 kts | 85° |
| 2026-04-25 13:17 | 51.41122 | 12.23321 | 473 ft | 21 kts | 85° |
| 2026-04-25 13:17 | 51.41134 | 12.23558 | 469 ft | 22 kts | 85° |
| 2026-04-25 13:17 | 51.41146 | 12.23817 | 466 ft | 24 kts | 86° |
| 2026-04-25 13:17 | 51.41158 | 12.24087 | 470 ft | 25 kts | 85° |
| 2026-04-25 13:18 | 51.41172 | 12.24374 | 467 ft | 25 kts | 86° |
| 2026-04-25 13:18 | 51.41185 | 12.24653 | 467 ft | 25 kts | 85° |
| 2026-04-25 13:18 | 51.41197 | 12.24919 | 478 ft | 22 kts | 86° |
| 2026-04-25 13:18 | 51.41209 | 12.25167 | 477 ft | 23 kts | 85° |
| 2026-04-25 13:19 | 51.41219 | 12.25395 | 474 ft | 18 kts | 86° |
| 2026-04-25 13:19 | 51.41242 | 12.25590 | 471 ft | 18 kts | 49° |
| 2026-04-25 13:19 | 51.41330 | 12.25594 | 473 ft | 17 kts | 335° |
| 2026-04-25 13:19 | 51.41390 | 12.25514 | 469 ft | 17 kts | 297° |
| 2026-04-25 13:20 | 51.41389 | 12.25346 | 468 ft | 0 kts | 266° |
| 2026-04-25 13:20 | 51.41386 | 12.25269 | 470 ft | 24 kts | 266° |
| 2026-04-25 13:20 | 51.41357 | 12.24654 | 472 ft | 86 kts | 265° |
| 2026-04-25 13:21 | 51.41296 | 12.23378 | 468 ft | 141 kts | 265° |
| 2026-04-25 13:21 | 51.41214 | 12.21563 | 666 ft | 177 kts | 266° |
| 2026-04-25 13:21 | 51.41150 | 12.19549 | 1429 ft | 182 kts | 268° |
| 2026-04-25 13:21 | 51.41106 | 12.17503 | 2278 ft | 187 kts | 268° |
| 2026-04-25 13:22 | 51.40996 | 12.15247 | 2737 ft | 217 kts | 265° |
| 2026-04-25 13:22 | 51.40844 | 12.12740 | 3287 ft | 234 kts | 265° |
| 2026-04-25 13:22 | 51.40647 | 12.10090 | 4032 ft | 241 kts | 262° |
| 2026-04-25 13:23 | 51.38654 | 12.06080 | 6140 ft | 254 kts | 206° |
| 2026-04-25 13:23 | 51.36810 | 12.05746 | 6698 ft | 282 kts | 173° |
| 2026-04-25 13:23 | 51.34918 | 12.06756 | 7341 ft | 298 kts | 161° |
| 2026-04-25 13:23 | 51.32986 | 12.08094 | 8117 ft | 305 kts | 159° |
| 2026-04-25 13:24 | 51.31046 | 12.09507 | 9063 ft | 307 kts | 159° |
| 2026-04-25 13:24 | 51.29053 | 12.10735 | 9998 ft | 307 kts | 164° |
| 2026-04-25 13:24 | 51.26998 | 12.11857 | 10570 ft | 321 kts | 165° |
| 2026-04-25 13:24 | 51.24809 | 12.13044 | 10882 ft | 342 kts | 165° |
| 2026-04-25 13:25 | 51.22493 | 12.14321 | 11197 ft | 362 kts | 164° |
| 2026-04-25 13:25 | 51.20064 | 12.15680 | 11648 ft | 376 kts | 163° |
| 2026-04-25 13:25 | 51.17572 | 12.17085 | 12327 ft | 382 kts | 163° |
| 2026-04-25 13:25 | 51.15051 | 12.18511 | 13085 ft | 386 kts | 163° |
| 2026-04-25 13:26 | 51.12502 | 12.19952 | 13847 ft | 390 kts | 163° |
| 2026-04-25 13:26 | 51.09968 | 12.21394 | 14480 ft | 394 kts | 162° |
| 2026-04-25 13:26 | 51.07457 | 12.23252 | 15131 ft | 402 kts | 152° |
| 2026-04-25 13:26 | 51.05194 | 12.25943 | 15790 ft | 410 kts | 137° |
| 2026-04-25 13:27 | 51.03365 | 12.29441 | 16432 ft | 415 kts | 123° |
| 2026-04-25 13:27 | 51.02090 | 12.33583 | 17076 ft | 419 kts | 108° |
| 2026-04-25 13:27 | 51.01465 | 12.38104 | 17722 ft | 421 kts | 94° |
| 2026-04-25 13:27 | 51.01370 | 12.42768 | 18320 ft | 424 kts | 88° |
| 2026-04-25 13:28 | 51.01413 | 12.47428 | 18857 ft | 428 kts | 87° |
| 2026-04-25 13:28 | 51.01432 | 12.49013 | 19036 ft | 429 kts | 87° |
| 2026-04-25 13:28 | 51.01509 | 12.56954 | 19849 ft | 434 kts | 87° |
| 2026-04-25 13:28 | 51.01541 | 12.61772 | 20077 ft | 436 kts | 88° |
| 2026-04-25 13:29 | 51.01567 | 12.66622 | 20503 ft | 440 kts | 88° |
| 2026-04-25 13:29 | 51.01588 | 12.71498 | 21055 ft | 443 kts | 88° |
| 2026-04-25 13:29 | 51.01605 | 12.76402 | 21580 ft | 446 kts | 88° |
| 2026-04-25 13:30 | 51.01632 | 12.86328 | 22574 ft | 453 kts | 88° |
| 2026-04-25 13:30 | 51.01642 | 12.91287 | 23018 ft | 457 kts | 88° |
| 2026-04-25 13:30 | 51.01650 | 12.96350 | 23494 ft | 460 kts | 88° |
| 2026-04-25 13:31 | 51.01659 | 13.06584 | 24341 ft | 465 kts | 88° |
| 2026-04-25 13:31 | 51.01660 | 13.11745 | 24768 ft | 467 kts | 88° |
| 2026-04-25 13:31 | 51.01659 | 13.16924 | 25177 ft | 470 kts | 88° |
| 2026-04-25 13:31 | 51.01655 | 13.22121 | 25604 ft | 472 kts | 88° |
| 2026-04-25 13:32 | 51.01649 | 13.27356 | 26019 ft | 475 kts | 88° |
| 2026-04-25 13:32 | 51.01641 | 13.32629 | 26414 ft | 477 kts | 88° |
| 2026-04-25 13:32 | 51.01630 | 13.37856 | 26765 ft | 481 kts | 88° |
| 2026-04-25 13:32 | 51.01617 | 13.43211 | 27133 ft | 485 kts | 88° |
| 2026-04-25 13:33 | 51.01600 | 13.48578 | 27545 ft | 487 kts | 88° |
| 2026-04-25 13:33 | 51.01502 | 13.53969 | 27943 ft | 491 kts | 93° |
| 2026-04-25 13:33 | 51.00916 | 13.59324 | 28323 ft | 496 kts | 104° |
| 2026-04-25 13:33 | 51.00164 | 13.62756 | 28590 ft | 498 kts | 112° |
| 2026-04-25 13:34 | 50.97969 | 13.69298 | 28993 ft | 502 kts | 120° |
| 2026-04-25 13:34 | 50.94296 | 13.78585 | 29017 ft | 499 kts | 123° |
| 2026-04-25 13:35 | 50.90121 | 13.87368 | 29012 ft | 498 kts | 128° |
| 2026-04-25 13:35 | 50.85827 | 13.96024 | 29010 ft | 498 kts | 128° |
| 2026-04-25 13:36 | 50.81103 | 14.03950 | 29006 ft | 497 kts | 137° |
| 2026-04-25 13:36 | 50.76026 | 14.11408 | 29008 ft | 497 kts | 139° |
| 2026-04-25 13:37 | 50.70893 | 14.18756 | 29004 ft | 497 kts | 139° |
| 2026-04-25 13:37 | 50.65812 | 14.26013 | 29002 ft | 495 kts | 140° |
| 2026-04-25 13:38 | 50.60712 | 14.33303 | 29014 ft | 495 kts | 139° |
| 2026-04-25 13:38 | 50.55609 | 14.40588 | 28995 ft | 494 kts | 140° |
| 2026-04-25 13:39 | 50.50535 | 14.47814 | 29009 ft | 494 kts | 140° |
| 2026-04-25 13:39 | 50.45434 | 14.55088 | 29000 ft | 496 kts | 140° |
| 2026-04-25 13:40 | 50.40425 | 14.62604 | 28994 ft | 499 kts | 139° |
| 2026-04-25 13:40 | 50.35451 | 14.70211 | 29000 ft | 500 kts | 139° |
| 2026-04-25 13:41 | 50.30463 | 14.77794 | 28997 ft | 500 kts | 139° |
| 2026-04-25 13:41 | 50.25458 | 14.85344 | 28994 ft | 499 kts | 139° |
| 2026-04-25 13:42 | 50.20468 | 14.92834 | 28997 ft | 501 kts | 140° |
| 2026-04-25 13:42 | 50.15416 | 15.00389 | 28999 ft | 502 kts | 140° |
| 2026-04-25 13:43 | 50.10366 | 15.07923 | 29001 ft | 502 kts | 140° |
| 2026-04-25 13:43 | 50.05344 | 15.15392 | 29006 ft | 502 kts | 140° |
| 2026-04-25 13:44 | 50.00284 | 15.22895 | 28991 ft | 502 kts | 141° |
| 2026-04-25 13:44 | 49.95207 | 15.30398 | 29010 ft | 505 kts | 141° |
| 2026-04-25 13:45 | 49.90104 | 15.37919 | 28997 ft | 505 kts | 141° |
| 2026-04-25 13:45 | 49.85032 | 15.45373 | 29013 ft | 505 kts | 141° |
| 2026-04-25 13:46 | 49.79926 | 15.52852 | 29014 ft | 505 kts | 140° |
| 2026-04-25 13:46 | 49.74817 | 15.60311 | 29010 ft | 506 kts | 140° |
| 2026-04-25 13:47 | 49.69690 | 15.67775 | 29013 ft | 506 kts | 140° |
| 2026-04-25 13:47 | 49.64537 | 15.75252 | 28995 ft | 508 kts | 141° |
| 2026-04-25 13:47 | 49.61974 | 15.78966 | 28439 ft | 504 kts | 141° |
| 2026-04-25 13:48 | 49.59425 | 15.82654 | 27772 ft | 502 kts | 141° |
| 2026-04-25 13:48 | 49.56926 | 15.86266 | 27163 ft | 498 kts | 141° |
| 2026-04-25 13:48 | 49.54407 | 15.89901 | 26536 ft | 495 kts | 141° |
| 2026-04-25 13:48 | 49.51901 | 15.93511 | 26004 ft | 490 kts | 141° |
| 2026-04-25 13:49 | 49.49419 | 15.97080 | 25432 ft | 486 kts | 141° |
| 2026-04-25 13:49 | 49.46956 | 16.00614 | 24889 ft | 483 kts | 141° |
| 2026-04-25 13:49 | 49.44508 | 16.04121 | 24333 ft | 480 kts | 141° |
| 2026-04-25 13:49 | 49.42071 | 16.07607 | 23781 ft | 477 kts | 141° |
| 2026-04-25 13:50 | 49.39647 | 16.11071 | 23165 ft | 473 kts | 141° |
| 2026-04-25 13:50 | 49.37251 | 16.14491 | 22829 ft | 467 kts | 141° |
| 2026-04-25 13:50 | 49.34874 | 16.17879 | 22545 ft | 467 kts | 141° |
| 2026-04-25 13:50 | 49.32489 | 16.21254 | 22272 ft | 465 kts | 142° |
| 2026-04-25 13:51 | 49.29870 | 16.24072 | 21993 ft | 457 kts | 155° |
| 2026-04-25 13:51 | 49.27074 | 16.26346 | 21732 ft | 453 kts | 158° |
| 2026-04-25 13:51 | 49.24255 | 16.28485 | 21462 ft | 450 kts | 158° |
| 2026-04-25 13:51 | 49.21445 | 16.30580 | 21195 ft | 448 kts | 159° |
| 2026-04-25 13:52 | 49.18689 | 16.32623 | 20950 ft | 445 kts | 158° |
| 2026-04-25 13:52 | 49.15899 | 16.34687 | 20691 ft | 444 kts | 158° |
| 2026-04-25 13:52 | 49.13119 | 16.36739 | 20451 ft | 442 kts | 158° |
| 2026-04-25 13:52 | 49.11285 | 16.38091 | 20284 ft | 441 kts | 158° |
| 2026-04-25 13:53 | 49.08526 | 16.40123 | 20034 ft | 439 kts | 158° |
| 2026-04-25 13:53 | 49.05775 | 16.42147 | 19768 ft | 438 kts | 158° |
| 2026-04-25 13:53 | 49.03028 | 16.44165 | 19527 ft | 436 kts | 158° |
| 2026-04-25 13:53 | 49.00299 | 16.46167 | 19260 ft | 434 kts | 158° |
| 2026-04-25 13:54 | 48.97577 | 16.48163 | 19036 ft | 432 kts | 158° |
| 2026-04-25 13:54 | 48.94872 | 16.50143 | 18798 ft | 430 kts | 158° |
| 2026-04-25 13:54 | 48.92214 | 16.52085 | 18570 ft | 429 kts | 158° |
| 2026-04-25 13:54 | 48.89524 | 16.54050 | 18323 ft | 428 kts | 158° |
| 2026-04-25 13:55 | 48.86848 | 16.56002 | 18058 ft | 426 kts | 158° |
| 2026-04-25 13:55 | 48.84187 | 16.57943 | 17770 ft | 419 kts | 157° |
| 2026-04-25 13:55 | 48.81582 | 16.59840 | 17320 ft | 413 kts | 158° |
| 2026-04-25 13:55 | 48.78987 | 16.61641 | 16849 ft | 406 kts | 163° |
| 2026-04-25 13:56 | 48.76291 | 16.62829 | 16610 ft | 404 kts | 170° |
| 2026-04-25 13:56 | 48.73538 | 16.63765 | 16371 ft | 407 kts | 171° |
| 2026-04-25 13:56 | 48.70774 | 16.64665 | 16109 ft | 405 kts | 171° |
| 2026-04-25 13:56 | 48.68022 | 16.65558 | 15843 ft | 403 kts | 171° |
| 2026-04-25 13:57 | 48.65288 | 16.66449 | 15589 ft | 401 kts | 171° |
| 2026-04-25 13:57 | 48.63482 | 16.67039 | 15418 ft | 400 kts | 171° |
| 2026-04-25 13:57 | 48.59872 | 16.68011 | 15074 ft | 394 kts | 180° |
| 2026-04-25 13:57 | 48.57183 | 16.67622 | 14822 ft | 384 kts | 199° |
| 2026-04-25 13:58 | 48.54796 | 16.65972 | 14586 ft | 374 kts | 216° |
| 2026-04-25 13:58 | 48.52689 | 16.63707 | 14324 ft | 371 kts | 220° |
| 2026-04-25 13:58 | 48.50637 | 16.61332 | 14081 ft | 371 kts | 221° |
| 2026-04-25 13:58 | 48.48536 | 16.59072 | 13847 ft | 373 kts | 213° |
| 2026-04-25 13:59 | 48.46140 | 16.57653 | 13595 ft | 379 kts | 194° |
| 2026-04-25 13:59 | 48.43495 | 16.57558 | 13345 ft | 385 kts | 174° |
| 2026-04-25 13:59 | 48.40878 | 16.58461 | 13091 ft | 386 kts | 167° |
| 2026-04-25 13:59 | 48.38292 | 16.59574 | 12837 ft | 386 kts | 166° |
| 2026-04-25 14:00 | 48.35719 | 16.60701 | 12583 ft | 385 kts | 166° |
| 2026-04-25 14:00 | 48.33142 | 16.61816 | 12332 ft | 384 kts | 166° |
| 2026-04-25 14:00 | 48.30570 | 16.62916 | 12071 ft | 383 kts | 166° |
| 2026-04-25 14:00 | 48.28018 | 16.63998 | 11833 ft | 380 kts | 166° |
| 2026-04-25 14:01 | 48.25470 | 16.65074 | 11595 ft | 379 kts | 166° |
| 2026-04-25 14:01 | 48.22929 | 16.66142 | 11340 ft | 377 kts | 166° |
| 2026-04-25 14:01 | 48.20440 | 16.67187 | 11104 ft | 376 kts | 166° |
| 2026-04-25 14:01 | 48.17920 | 16.68242 | 10863 ft | 371 kts | 166° |
| 2026-04-25 14:02 | 48.15477 | 16.69266 | 10693 ft | 357 kts | 166° |
| 2026-04-25 14:02 | 48.13122 | 16.70252 | 10467 ft | 345 kts | 166° |
| 2026-04-25 14:02 | 48.10846 | 16.71203 | 10243 ft | 335 kts | 166° |
| 2026-04-25 14:02 | 48.09376 | 16.71817 | 10091 ft | 328 kts | 166° |
| 2026-04-25 14:03 | 48.06512 | 16.73012 | 9760 ft | 311 kts | 167° |
| 2026-04-25 14:03 | 48.04444 | 16.73870 | 9403 ft | 303 kts | 167° |
| 2026-04-25 14:03 | 48.02434 | 16.74704 | 9290 ft | 300 kts | 167° |
| 2026-04-25 14:03 | 48.00419 | 16.75538 | 9148 ft | 301 kts | 167° |
| 2026-04-25 14:04 | 47.98419 | 16.76364 | 8955 ft | 301 kts | 167° |
| 2026-04-25 14:04 | 47.96404 | 16.77199 | 8753 ft | 299 kts | 167° |
| 2026-04-25 14:04 | 47.94402 | 16.78029 | 8563 ft | 299 kts | 167° |
| 2026-04-25 14:04 | 47.92391 | 16.78858 | 8377 ft | 299 kts | 167° |
| 2026-04-25 14:05 | 47.90388 | 16.79685 | 8179 ft | 297 kts | 167° |
| 2026-04-25 14:05 | 47.88396 | 16.80508 | 7987 ft | 298 kts | 167° |
| 2026-04-25 14:05 | 47.86396 | 16.81331 | 7786 ft | 297 kts | 167° |
| 2026-04-25 14:05 | 47.84412 | 16.82145 | 7613 ft | 295 kts | 167° |
| 2026-04-25 14:06 | 47.82446 | 16.82955 | 7425 ft | 289 kts | 167° |
| 2026-04-25 14:06 | 47.80545 | 16.83743 | 7273 ft | 277 kts | 168° |
| 2026-04-25 14:06 | 47.78744 | 16.84487 | 7094 ft | 268 kts | 168° |
| 2026-04-25 14:06 | 47.76944 | 16.85221 | 6908 ft | 268 kts | 168° |
| 2026-04-25 14:07 | 47.75148 | 16.85953 | 6709 ft | 266 kts | 168° |
| 2026-04-25 14:07 | 47.73341 | 16.86418 | 6542 ft | 260 kts | 185° |
| 2026-04-25 14:07 | 47.71640 | 16.85777 | 6360 ft | 248 kts | 214° |
| 2026-04-25 14:07 | 47.70445 | 16.84085 | 6243 ft | 230 kts | 242° |
| 2026-04-25 14:08 | 47.69850 | 16.81978 | 6176 ft | 214 kts | 256° |
| 2026-04-25 14:08 | 47.69544 | 16.79888 | 6056 ft | 202 kts | 268° |
| 2026-04-25 14:08 | 47.69674 | 16.77883 | 5934 ft | 190 kts | 287° |
| 2026-04-25 14:08 | 47.70316 | 16.76314 | 5810 ft | 175 kts | 314° |
| 2026-04-25 14:09 | 47.70942 | 16.75564 | 5687 ft | 167 kts | 323° |
| 2026-04-25 14:09 | 47.72224 | 16.74612 | 5468 ft | 145 kts | 334° |
| 2026-04-25 14:09 | 47.73156 | 16.74139 | 5189 ft | 139 kts | 339° |
| 2026-04-25 14:09 | 47.73765 | 16.73880 | 5009 ft | 135 kts | 340° |
| 2026-04-25 14:10 | 47.74659 | 16.73511 | 4886 ft | 132 kts | 339° |
| 2026-04-25 14:10 | 47.75828 | 16.73025 | 4827 ft | 130 kts | 340° |
| 2026-04-25 14:10 | 47.76686 | 16.72665 | 4769 ft | 128 kts | 339° |
| 2026-04-25 14:10 | 47.77548 | 16.72296 | 4768 ft | 130 kts | 339° |
| 2026-04-25 14:11 | 47.78426 | 16.71918 | 4773 ft | 133 kts | 340° |
| 2026-04-25 14:11 | 47.79332 | 16.71538 | 4780 ft | 137 kts | 340° |
| 2026-04-25 14:11 | 47.80264 | 16.71151 | 4783 ft | 140 kts | 340° |
| 2026-04-25 14:11 | 47.81202 | 16.70761 | 4781 ft | 140 kts | 339° |
| 2026-04-25 14:12 | 47.82138 | 16.70362 | 4788 ft | 140 kts | 337° |
| 2026-04-25 14:12 | 47.83081 | 16.69969 | 4782 ft | 141 kts | 340° |
| 2026-04-25 14:12 | 47.84024 | 16.69581 | 4789 ft | 140 kts | 339° |
| 2026-04-25 14:12 | 47.84968 | 16.69187 | 4805 ft | 141 kts | 339° |
| 2026-04-25 14:13 | 47.85911 | 16.68790 | 4807 ft | 141 kts | 337° |
| 2026-04-25 14:13 | 47.86852 | 16.68395 | 4789 ft | 141 kts | 340° |
| 2026-04-25 14:13 | 47.87793 | 16.68002 | 4786 ft | 141 kts | 340° |
| 2026-04-25 14:13 | 47.88723 | 16.67612 | 4690 ft | 140 kts | 339° |
| 2026-04-25 14:14 | 47.89663 | 16.67218 | 4507 ft | 140 kts | 339° |
| 2026-04-25 14:14 | 47.90601 | 16.66827 | 4287 ft | 139 kts | 339° |
| 2026-04-25 14:14 | 47.91532 | 16.66435 | 4077 ft | 139 kts | 339° |
| 2026-04-25 14:14 | 47.92461 | 16.66043 | 3876 ft | 138 kts | 339° |
| 2026-04-25 14:15 | 47.93387 | 16.65655 | 3701 ft | 138 kts | 339° |
| 2026-04-25 14:15 | 47.93701 | 16.65523 | 3635 ft | 138 kts | 338° |
| 2026-04-25 14:15 | 47.95234 | 16.64878 | 3348 ft | 138 kts | 340° |
| 2026-04-25 14:15 | 47.96152 | 16.64494 | 3163 ft | 137 kts | 340° |
| 2026-04-25 14:16 | 47.97066 | 16.64107 | 2965 ft | 136 kts | 341° |
| 2026-04-25 14:16 | 47.97979 | 16.63724 | 2798 ft | 136 kts | 340° |
| 2026-04-25 14:16 | 47.98891 | 16.63339 | 2616 ft | 136 kts | 340° |
| 2026-04-25 14:16 | 47.99799 | 16.62958 | 2435 ft | 135 kts | 340° |
| 2026-04-25 14:17 | 48.00688 | 16.62586 | 2257 ft | 135 kts | 339° |
| 2026-04-25 14:17 | 48.01591 | 16.62204 | 2086 ft | 135 kts | 340° |
| 2026-04-25 14:17 | 48.02498 | 16.61819 | 1879 ft | 135 kts | 340° |
| 2026-04-25 14:17 | 48.03399 | 16.61433 | 1719 ft | 135 kts | 338° |
| 2026-04-25 14:18 | 48.04305 | 16.61082 | 1521 ft | 133 kts | 336° |
| 2026-04-25 14:18 | 48.05197 | 16.60712 | 1368 ft | 133 kts | 336° |
| 2026-04-25 14:18 | 48.06083 | 16.60301 | 1200 ft | 135 kts | 333° |
| 2026-04-25 14:18 | 48.06983 | 16.59926 | 994 ft | 134 kts | 335° |
| 2026-04-25 14:19 | 48.07881 | 16.59541 | 807 ft | 135 kts | 337° |
| 2026-04-25 14:19 | 48.08776 | 16.59173 | 660 ft | 131 kts | 330° |
| 2026-04-25 14:19 | 48.09579 | 16.58828 | 625 ft | 94 kts | 343° |
| 2026-04-25 14:19 | 48.09944 | 16.58668 | 624 ft | 20 kts | 333° |
| 2026-04-25 14:20 | 48.10039 | 16.58540 | 627 ft | 18 kts | 305° |
| 2026-04-25 14:20 | 48.10082 | 16.58436 | 623 ft | 17 kts | 298° |
| 2026-04-25 14:20 | 48.10164 | 16.58307 | 627 ft | 12 kts | 339° |
| 2026-04-25 14:20 | 48.10246 | 16.58272 | 627 ft | 13 kts | 344° |
| 2026-04-25 14:21 | 48.10335 | 16.58234 | 627 ft | 14 kts | 343° |
| 2026-04-25 14:21 | 48.10449 | 16.58186 | 624 ft | 19 kts | 344° |
| 2026-04-25 14:21 | 48.10581 | 16.58130 | 623 ft | 20 kts | 344° |
| 2026-04-25 14:21 | 48.10716 | 16.58073 | 624 ft | 20 kts | 344° |
| 2026-04-25 14:22 | 48.10854 | 16.58015 | 618 ft | 21 kts | 344° |
| 2026-04-25 14:22 | 48.10989 | 16.57957 | 624 ft | 20 kts | 345° |
| 2026-04-25 14:22 | 48.11107 | 16.57869 | 623 ft | 18 kts | 301° |
| 2026-04-25 14:22 | 48.11161 | 16.57707 | 623 ft | 17 kts | 296° |
| 2026-04-25 14:23 | 48.11216 | 16.57536 | 624 ft | 20 kts | 296° |
| 2026-04-25 14:23 | 48.11275 | 16.57356 | 623 ft | 20 kts | 296° |
| 2026-04-25 14:23 | 48.11334 | 16.57173 | 627 ft | 20 kts | 296° |
| 2026-04-25 14:23 | 48.11397 | 16.56981 | 625 ft | 21 kts | 296° |
| 2026-04-25 14:24 | 48.11459 | 16.56788 | 627 ft | 20 kts | 296° |
| 2026-04-25 14:24 | 48.11521 | 16.56599 | 623 ft | 20 kts | 295° |
| 2026-04-25 14:24 | 48.11581 | 16.56416 | 625 ft | 20 kts | 296° |
| 2026-04-25 14:24 | 48.11642 | 16.56231 | 620 ft | 20 kts | 296° |
| 2026-04-25 14:25 | 48.11702 | 16.56044 | 616 ft | 20 kts | 296° |
| 2026-04-25 14:25 | 48.11762 | 16.55861 | 627 ft | 20 kts | 296° |
| 2026-04-25 14:25 | 48.11823 | 16.55674 | 627 ft | 20 kts | 296° |
| 2026-04-25 14:25 | 48.11843 | 16.55615 | 627 ft | 20 kts | 296° |
| 2026-04-25 14:26 | 48.11932 | 16.55302 | 615 ft | 19 kts | 296° |
| 2026-04-25 14:26 | 48.11990 | 16.55123 | 616 ft | 19 kts | 295° |
| 2026-04-25 14:26 | 48.12049 | 16.54944 | 627 ft | 19 kts | 296° |
| 2026-04-25 14:26 | 48.12104 | 16.54772 | 620 ft | 16 kts | 293° |
| 2026-04-25 14:27 | 48.12147 | 16.54641 | 618 ft | 10 kts | 296° |
| 2026-04-25 14:27 | 48.12186 | 16.54579 | 623 ft | 7 kts | 359° |
| 2026-04-25 14:27 | 48.12235 | 16.54603 | 620 ft | 8 kts | 23° |
| 2026-04-25 14:27 | 48.12249 | 16.54612 | 624 ft | 0 kts | 25° |